Expressjet E145 at Houston on Dec 7th 2018, runway excursion on landing

Last Update: December 10, 2018 / 21:21:51 GMT/Zulu time

Bookmark this article
Incident Facts

Date of incident
Dec 7, 2018

Classification
Incident

Airline
Expressjet

Flight number
EV-4446

Aircraft Registration
N16976

Aircraft Type
Embraer ERJ-145

ICAO Type Designator
E145

Airport ICAO Code
KIAH

An Expressjet Embraer ERJ-145 on behalf of United, registration N16976 performing flight EV-4446/UA-4446 from Jacksonville,FL to Houston Intercontinental,TX to Monroe,LA (USA) with 25 passengers, landed on Houston's runway 26L at 21:52L (03:52Z Dec 8th) when the crew reported they were off the right side of the runway and were disabled. Tower instructed the next approaches to go around. There were no injuries, the aircraft sustained minor if any damage.

The runway needed to be closed.

On Dec 10th 2018 the FAA reported the Expressjet E145, registration unknown, flight 4446, ran off the end of the runway into grass.

Related NOTAMs:
!IAH 12/082 IAH RWY 08R/26L CLSD 1812080420-1812081700

!IAH 12/086 IAH RWY 08R/26L CLSD 1812081811-1812091800

Metars:
KIAH 080453Z 03010KT 3SM +RA BR BKN006 OVC020 13/13 A3000 RMK AO2 LTG DSNT S AND SW TSE16 SLP158 CIG RGD P0050 T01280128 $=
KIAH 080417Z 36012KT 3SM +RA BR BKN005 OVC015 12/12 A3000 RMK AO2 LTG DSNT W TSE16 TS DSIPT CB DSNT SE AND W MOV NE P0032 T01220122 $=
KIAH 080353Z 02007KT 2SM +TSRA BR BKN005 BKN014CB OVC030 13/13 A3003 RMK AO2 PK WND 01027/0331 TSB53 SLP167 OCNL LTGIC SW TS SW MOV NE P0071 T01280128 $=
KIAH 080253Z 36018KT 2 1/2SM +RA BR BKN005 OVC014 13/13 A3002 RMK AO2 TSE30 SLP164 CB DSNT W-NW MOV NE P0031 60172 T01330133 56011 $=
KIAH 080230Z 36013G19KT 3SM +RA BR BKN005 BKN013 OVC030 13/13 A3001 RMK AO2 LTG DSNT ALQDS TSE30 TS MOVD NE CB DSNT W-NE MOV NE BKN005 V SCT P0019 T01330133 $=
KIAH 080153Z 34010KT 4SM TSRA BR BKN005 BKN014CB OVC030 13/13 A3003 RMK AO2 TSB38 SLP170 OCNL LTGICCC W-NW TS W-NW MOV NE P0087 T01330133=
KIAH 080139Z 35008KT 2SM +TSRA BR BKN005 BKN012CB OVC030 13/13 A3003 RMK AO2 TSB38 OCNL LTGICCC W TS W MOV NE P0079 T01330133=
KIAH 080123Z 29010KT 1SM +RA BR BKN004 OVC012 13/13 A3005 RMK AO2 LTG DSNT W PRESRR CB DSNT W MOV NE P0026 T01330133=
KIAH 080053Z 36009KT 2 1/2SM +RA BR BKN004 BKN012 OVC040 14/14 A3002 RMK AO2 LTG DSNT W SLP166 P0054 T01390139=
KIAH 072353Z 33010KT 1 1/2SM +RA BR OVC004 16/16 A3005 RMK AO2 SFC VIS 3 SLP175 P0050 60083 T01560156 10239 20156 53003=
Aircraft Registration Data
Registration mark
N16976
Country of Registration
United States
Date of Registration
Djjgkgengeijpkedm Subscribe to unlock
Manufacturer
PIPER
Aircraft Model / Type
J-2
Number of Seats
ICAO Aircraft Type
E145
Year of Manufacture
Serial Number
Aircraft Address / Mode S Code (HEX)
Engine Count
Engine Type
Main Owner
Qiledefpqegihngenemlnbpkhbbmgqiqlpljkqpelpi gghmmeAfcAfqkecgqjm Subscribe to unlock
Incident Facts

Date of incident
Dec 7, 2018

Classification
Incident

Airline
Expressjet

Flight number
EV-4446

Aircraft Registration
N16976

Aircraft Type
Embraer ERJ-145

ICAO Type Designator
E145

Airport ICAO Code
KIAH

This article is published under license from Avherald.com. © of text by Avherald.com.
Article source

You can read 2 more free articles without a subscription.

Subscribe now and continue reading without any limits!

Are you a subscriber? Login
Subscribe

Read unlimited articles and receive our daily update briefing. Gain better insights into what is happening in commercial aviation safety.

Free newsletter

Want to know more and stay ahead? Get our free weekly newsletter and join 5377 existing subscribers.

By subscribing, you accept our terms and conditions and confirm that you've read our privacy policy.

Send tip

Support AeroInside by sending a small tip amount.

Related articles

Newest articles

Subscribe today

Are you researching aviation incidents? Get access to AeroInside Insights, unlimited read access and receive the daily newsletter.

Pick your plan and subscribe

Partner

Blockaviation logo

A new way to document and demonstrate airworthiness compliance and aircraft value. Find out more.

Virtual Speech logo

ELITE Simulation Solutions is a leading global provider of Flight Simulation Training Devices, IFR training software as well as flight controls and related services. Find out more.

Get updates

Never miss an article from AeroInside. Subscribe to our free weekly newsletter and join 5377 existing subscribers.

By subscribing, you accept our terms and conditions and that you've read our privacy policy.

AeroInside Blog
Popular aircraft
Airbus A320
Boeing 737-800
Boeing 737-800 MAX
Popular airlines
American Airlines
United
Delta
Air Canada
Lufthansa
British Airways